createdAt,value
2018-12-27T00:00:36.131Z,2.78
2018-12-27T00:03:05.867Z,2.79
2018-12-27T00:05:35.536Z,2.80
2018-12-27T00:08:05.751Z,2.82
2018-12-27T00:10:36.771Z,2.84
2018-12-27T00:13:06.441Z,2.87
2018-12-27T00:15:36.085Z,2.87
2018-12-27T00:18:06.003Z,2.87
2018-12-27T00:20:35.739Z,2.88
2018-12-27T00:23:25.158Z,2.88
2018-12-27T00:25:54.859Z,2.88
2018-12-27T00:28:24.497Z,2.85
2018-12-27T00:30:54.352Z,2.84
2018-12-27T00:33:24.136Z,2.82
2018-12-27T00:35:53.891Z,2.81
2018-12-27T00:38:23.759Z,2.80
2018-12-27T00:40:53.818Z,2.78
2018-12-27T00:43:23.574Z,2.77
2018-12-27T00:46:12.392Z,2.74
2018-12-27T00:48:42.143Z,2.73
2018-12-27T00:51:11.907Z,2.70
2018-12-27T00:53:41.791Z,2.67
2018-12-27T00:56:30.612Z,2.64
2018-12-27T00:59:00.580Z,2.61
2018-12-27T01:01:30.317Z,2.57
2018-12-27T01:04:00.077Z,2.54
2018-12-27T01:06:29.978Z,2.49
2018-12-27T01:08:59.733Z,2.30
2018-12-27T01:11:29.723Z,2.44
2018-12-27T01:13:59.823Z,2.42
2018-12-27T01:16:29.571Z,2.40
2018-12-27T01:18:59.322Z,2.38
2018-12-27T01:21:29.458Z,2.35
2018-12-27T01:23:59.213Z,2.33
2018-12-27T01:26:29.067Z,2.30
2018-12-27T01:28:59.028Z,2.28
2018-12-27T01:31:28.772Z,2.25
2018-12-27T01:33:58.525Z,2.24
2018-12-27T01:36:28.633Z,2.21
2018-12-27T01:38:58.401Z,2.19
2018-12-27T01:41:28.259Z,2.18
2018-12-27T01:44:01.119Z,2.17
2018-12-27T01:46:50.627Z,2.16
2018-12-27T01:49:32.139Z,2.14
2018-12-27T01:52:02.121Z,2.11
2018-12-27T01:54:31.872Z,2.11
2018-12-27T01:57:01.685Z,2.07
2018-12-27T01:59:31.659Z,2.07
2018-12-27T02:02:01.416Z,2.05
2018-12-27T02:04:31.210Z,2.03
2018-12-27T02:07:01.209Z,2.00
2018-12-27T02:09:30.961Z,1.99
2018-12-27T02:12:00.807Z,1.95
2018-12-27T02:14:30.673Z,1.94
2018-12-27T02:19:49.474Z,1.90
2018-12-27T02:22:30.639Z,1.88
2018-12-27T02:25:00.697Z,1.86
2018-12-27T02:27:30.669Z,1.86
2018-12-27T02:30:00.438Z,1.86
2018-12-27T02:32:30.385Z,1.84
2018-12-27T02:35:00.160Z,1.82
2018-12-27T02:37:29.929Z,1.80
2018-12-27T02:40:00.224Z,1.78
2018-12-27T02:42:29.944Z,1.76
2018-12-27T02:44:59.748Z,1.76
2018-12-27T02:50:04.737Z,1.73
2018-12-27T02:55:10.298Z,1.69
2018-12-27T02:57:40.081Z,1.68
2018-12-27T03:00:09.859Z,1.63
2018-12-27T03:02:39.862Z,1.61
2018-12-27T03:07:45.124Z,1.55
2018-12-27T03:10:15.028Z,1.53
2018-12-27T03:12:44.765Z,1.52
2018-12-27T03:15:14.610Z,1.48
2018-12-27T03:17:44.411Z,1.45
2018-12-27T03:20:14.163Z,1.45
2018-12-27T03:22:44.016Z,1.43
2018-12-27T03:25:13.936Z,1.40
2018-12-27T03:27:43.986Z,1.39
2018-12-27T03:30:14.047Z,1.37
2018-12-27T03:32:43.842Z,1.36
2018-12-27T03:35:13.589Z,1.34
2018-12-27T03:37:43.674Z,1.35
2018-12-27T03:40:13.503Z,1.32
2018-12-27T03:42:43.280Z,1.30
2018-12-27T03:45:13.730Z,1.30
2018-12-27T03:47:44.006Z,1.27
2018-12-27T03:50:13.850Z,1.27
2018-12-27T03:52:43.981Z,1.23
2018-12-27T03:55:13.893Z,1.21
2018-12-27T03:57:43.947Z,1.20
2018-12-27T04:00:13.957Z,1.18
2018-12-27T04:02:43.762Z,1.17
2018-12-27T04:05:32.653Z,1.15
2018-12-27T04:08:02.442Z,1.15
2018-12-27T04:10:32.206Z,0.29
2018-12-27T04:13:02.351Z,1.09
2018-12-27T04:15:32.036Z,1.08
2018-12-27T04:23:28.051Z,1.02
2018-12-27T04:26:36.972Z,1.00
2018-12-27T04:29:07.471Z,0.99
2018-12-27T04:35:12.436Z,0.96
2018-12-27T04:37:42.053Z,0.93
2018-12-27T04:40:11.681Z,0.91
2018-12-27T04:45:37.273Z,0.86
2018-12-27T04:48:06.922Z,0.84
2018-12-27T04:50:36.546Z,0.83
2018-12-27T04:53:06.401Z,0.82
2018-12-27T04:55:36.016Z,0.80
2018-12-27T04:58:05.654Z,0.77
2018-12-27T05:00:35.421Z,0.76
2018-12-27T05:05:54.786Z,0.73
2018-12-27T05:08:24.421Z,0.71
2018-12-27T05:10:54.039Z,0.70
2018-12-27T05:13:23.944Z,0.69
2018-12-27T05:15:53.608Z,0.68
2018-12-27T05:18:23.235Z,0.65
2018-12-27T05:20:53.028Z,0.64
2018-12-27T05:23:22.656Z,0.62
2018-12-27T05:25:52.284Z,0.59
2018-12-27T05:28:22.121Z,0.57
2018-12-27T05:30:52.289Z,0.56
2018-12-27T05:33:21.966Z,0.56
2018-12-27T05:35:51.711Z,0.57
2018-12-27T05:38:21.359Z,0.58
2018-12-27T05:40:51.014Z,0.56
2018-12-27T05:43:21.089Z,0.56
2018-12-27T05:45:50.938Z,0.54
2018-12-27T05:48:20.566Z,0.54
2018-12-27T05:50:50.402Z,0.55
2018-12-27T05:53:20.013Z,0.54
2018-12-27T05:55:49.638Z,0.55
2018-12-27T05:58:19.532Z,0.54
2018-12-27T06:00:49.161Z,0.52
2018-12-27T06:03:18.783Z,0.52
2018-12-27T06:05:48.567Z,0.51
2018-12-27T06:08:37.011Z,0.51
2018-12-27T06:11:07.025Z,0.52
2018-12-27T06:13:36.649Z,0.32
2018-12-27T06:16:06.274Z,0.51
2018-12-27T06:18:36.258Z,0.51
2018-12-27T06:21:05.881Z,0.51
2018-12-27T06:23:35.517Z,0.52
2018-12-27T06:26:05.292Z,0.51
2018-12-27T06:28:34.934Z,0.52
2018-12-27T06:31:04.636Z,0.53
2018-12-27T06:33:34.408Z,0.55
2018-12-27T06:36:04.056Z,0.55
2018-12-27T06:38:33.689Z,0.57
2018-12-27T06:41:03.473Z,0.58
2018-12-27T06:43:33.078Z,0.59
2018-12-27T06:46:03.417Z,0.59
2018-12-27T06:48:33.184Z,0.60
2018-12-27T06:51:02.923Z,0.63
2018-12-27T06:53:32.570Z,0.63
2018-12-27T06:56:21.199Z,0.63
2018-12-27T06:58:50.844Z,0.65
2018-12-27T07:01:20.487Z,0.64
2018-12-27T07:03:50.432Z,0.63
2018-12-27T07:06:20.056Z,0.64
2018-12-27T07:08:49.682Z,0.65
2018-12-27T07:11:19.706Z,0.63
2018-12-27T07:13:49.348Z,0.61
2018-12-27T07:16:19.006Z,0.60
2018-12-27T07:21:26.909Z,0.62
2018-12-27T07:23:56.951Z,0.60
2018-12-27T07:26:26.840Z,0.63
2018-12-27T07:29:03.310Z,0.64
2018-12-27T07:31:44.550Z,0.63
2018-12-27T07:34:14.239Z,0.62
2018-12-27T07:36:43.984Z,0.59
2018-12-27T07:39:13.761Z,0.57
2018-12-27T07:41:43.473Z,0.57
2018-12-27T07:47:22.049Z,0.56
2018-12-27T07:53:20.385Z,0.56
2018-12-27T07:55:50.017Z,0.57
2018-12-27T07:58:19.645Z,0.58
2018-12-27T08:00:49.712Z,0.58
2018-12-27T08:03:19.403Z,0.57
2018-12-27T08:05:49.255Z,0.56
2018-12-27T08:08:19.266Z,0.54
2018-12-27T08:10:49.016Z,0.53
2018-12-27T08:13:18.757Z,0.52
2018-12-27T08:16:07.672Z,0.54
2018-12-27T08:18:37.349Z,0.54
2018-12-27T08:21:07.102Z,0.51
2018-12-27T08:23:37.193Z,0.51
2018-12-27T08:26:06.994Z,0.51
2018-12-27T08:28:36.779Z,0.47
2018-12-27T08:31:06.840Z,0.47
2018-12-27T08:33:36.678Z,0.48
2018-12-27T08:36:06.388Z,0.49
2018-12-27T08:38:36.163Z,0.54
2018-12-27T08:41:05.799Z,0.56
2018-12-27T08:43:35.427Z,0.60
2018-12-27T08:46:05.393Z,0.62
2018-12-27T08:48:35.031Z,0.65
2018-12-27T08:51:04.650Z,0.67
2018-12-27T08:53:34.456Z,0.70
2018-12-27T08:56:04.103Z,0.72
2018-12-27T08:58:33.810Z,0.74
2018-12-27T09:01:03.585Z,0.77
2018-12-27T09:03:33.213Z,0.78
2018-12-27T09:06:02.841Z,0.82
2018-12-27T09:08:32.614Z,0.87
2018-12-27T09:11:02.239Z,0.90
2018-12-27T09:13:31.877Z,0.95
2018-12-27T09:16:20.489Z,1.03
2018-12-27T09:18:50.112Z,1.07
2018-12-27T09:21:38.923Z,1.08
2018-12-27T09:24:08.552Z,1.12
2018-12-27T09:26:38.195Z,1.15
2018-12-27T09:29:07.962Z,1.17
2018-12-27T09:34:26.497Z,1.24
2018-12-27T09:36:56.216Z,1.32
2018-12-27T09:39:25.854Z,1.35
2018-12-27T09:41:55.724Z,1.40
2018-12-27T09:44:25.360Z,1.43
2018-12-27T09:46:55.014Z,1.46
2018-12-27T09:49:24.796Z,1.51
2018-12-27T09:51:54.498Z,1.58
2018-12-27T09:54:24.198Z,1.67
2018-12-27T09:57:13.482Z,1.73
2018-12-27T10:02:31.776Z,1.75
2018-12-27T10:05:01.411Z,1.77
2018-12-27T10:07:31.373Z,1.81
2018-12-27T10:10:01.202Z,1.82
2018-12-27T10:12:30.867Z,1.85
2018-12-27T10:15:00.560Z,1.88
2018-12-27T10:17:30.469Z,1.97
2018-12-27T10:20:00.248Z,2.04
2018-12-27T10:22:30.151Z,2.02
2018-12-27T10:24:59.930Z,2.06
2018-12-27T10:27:29.542Z,2.05
2018-12-27T10:29:59.192Z,2.03
2018-12-27T10:32:29.088Z,2.00
2018-12-27T10:34:58.734Z,1.95
2018-12-27T10:37:28.730Z,2.01
2018-12-27T10:39:58.507Z,2.07
2018-12-27T10:42:28.142Z,2.03
2018-12-27T10:44:57.836Z,1.95
2018-12-27T10:47:27.670Z,1.92
2018-12-27T10:49:57.289Z,1.98
2018-12-27T10:52:26.923Z,2.02
2018-12-27T10:54:56.830Z,1.07
2018-12-27T10:57:26.484Z,2.05
2018-12-27T10:59:56.117Z,2.07
2018-12-27T11:02:28.425Z,2.06
2018-12-27T11:04:58.103Z,2.08
2018-12-27T11:07:27.744Z,2.12
2018-12-27T11:09:57.654Z,2.18
2018-12-27T11:12:27.274Z,2.23
2018-12-27T11:14:56.918Z,2.26
2018-12-27T11:17:26.777Z,2.22
2018-12-27T11:19:56.405Z,2.14
2018-12-27T11:22:26.065Z,2.09
2018-12-27T11:27:32.893Z,2.05
2018-12-27T11:30:02.552Z,2.03
2018-12-27T11:32:32.240Z,2.03
2018-12-27T11:35:02.214Z,2.05
2018-12-27T11:37:31.841Z,2.08
2018-12-27T11:42:57.658Z,2.12
2018-12-27T11:45:27.285Z,2.15
2018-12-27T11:47:56.909Z,2.19
2018-12-27T11:50:26.788Z,2.21
2018-12-27T11:52:56.425Z,2.25
2018-12-27T11:55:26.062Z,2.23
2018-12-27T11:57:55.927Z,2.20
2018-12-27T12:00:25.590Z,2.14
2018-12-27T12:02:55.236Z,2.16
2018-12-27T12:05:25.075Z,2.17
2018-12-27T12:07:54.714Z,2.15
2018-12-27T12:10:24.363Z,2.09
2018-12-27T12:12:54.175Z,2.09
2018-12-27T12:15:23.797Z,2.12
2018-12-27T12:17:53.439Z,2.10
2018-12-27T12:20:23.309Z,2.09
2018-12-27T12:22:52.964Z,2.05
2018-12-27T12:25:22.662Z,2.02
2018-12-27T12:28:11.342Z,1.99
2018-12-27T12:30:40.988Z,1.95
2018-12-27T12:33:10.643Z,1.96
2018-12-27T12:35:40.478Z,1.97
2018-12-27T12:38:10.708Z,1.99
2018-12-27T12:40:51.973Z,2.00
2018-12-27T12:43:25.060Z,2.01
2018-12-27T12:45:55.385Z,2.00
2018-12-27T12:48:26.050Z,1.99
2018-12-27T12:50:55.769Z,1.94
2018-12-27T12:53:26.198Z,1.92
2018-12-27T12:55:55.908Z,1.90
2018-12-27T12:58:25.675Z,1.88
2018-12-27T13:00:55.539Z,1.84
2018-12-27T13:03:25.825Z,1.82
2018-12-27T13:05:55.487Z,1.78
2018-12-27T13:08:25.212Z,1.75
2018-12-27T13:10:55.639Z,1.73
2018-12-27T13:13:44.255Z,1.72
2018-12-27T13:16:18.759Z,1.71
2018-12-27T13:18:49.917Z,1.71
2018-12-27T13:21:22.306Z,1.72
2018-12-27T13:23:52.304Z,1.70
2018-12-27T13:26:22.131Z,1.69
2018-12-27T13:28:58.848Z,1.67
2018-12-27T13:31:29.074Z,1.65
2018-12-27T13:33:58.836Z,1.63
2018-12-27T13:36:28.302Z,1.61
2018-12-27T13:38:58.129Z,1.60
2018-12-27T13:41:28.347Z,1.60
2018-12-27T13:43:58.037Z,1.59
2018-12-27T13:46:29.479Z,1.58
2018-12-27T13:48:59.725Z,1.55
2018-12-27T13:51:29.571Z,1.55
2018-12-27T13:54:25.609Z,1.54
2018-12-27T13:56:56.566Z,1.52
2018-12-27T13:59:48.495Z,1.49
2018-12-27T14:04:56.923Z,1.46
2018-12-27T14:10:23.885Z,1.44
2018-12-27T14:12:59.564Z,1.43
2018-12-27T14:15:29.418Z,1.42
2018-12-27T14:17:59.103Z,1.43
2018-12-27T14:20:28.836Z,1.43
2018-12-27T14:22:58.619Z,1.42
2018-12-27T14:25:29.245Z,1.42
2018-12-27T14:27:59.263Z,1.41
2018-12-27T14:30:48.143Z,1.43
2018-12-27T14:33:18.327Z,1.43
2018-12-27T14:35:50.346Z,1.42
2018-12-27T14:38:41.658Z,1.43
2018-12-27T14:41:11.881Z,1.43
2018-12-27T14:44:01.319Z,1.42
2018-12-27T14:46:31.351Z,1.42
2018-12-27T14:49:02.972Z,1.44
2018-12-27T14:51:33.654Z,1.45
2018-12-27T14:54:08.341Z,1.44
2018-12-27T14:56:38.206Z,1.44
2018-12-27T14:59:07.844Z,1.46
2018-12-27T15:01:40.140Z,1.47
2018-12-27T15:04:09.783Z,1.48
2018-12-27T15:06:39.396Z,1.50
2018-12-27T15:09:11.940Z,1.52
2018-12-27T15:14:17.807Z,1.52
2018-12-27T15:16:48.364Z,1.52
2018-12-27T15:19:18.140Z,1.54
2018-12-27T15:21:47.801Z,1.53
2018-12-27T15:24:56.951Z,1.49
2018-12-27T15:27:26.591Z,1.45
2018-12-27T15:29:56.326Z,1.42
2018-12-27T15:32:26.300Z,1.41
2018-12-27T15:34:56.268Z,1.43
2018-12-27T15:37:26.270Z,1.45
2018-12-27T15:39:56.872Z,1.45
2018-12-27T15:42:26.740Z,1.46
2018-12-27T15:44:56.678Z,1.45
2018-12-27T15:47:26.475Z,1.45
2018-12-27T15:49:56.485Z,1.44
2018-12-27T15:52:26.147Z,1.44
2018-12-27T15:54:56.104Z,1.44
2018-12-27T15:57:25.888Z,1.44
2018-12-27T15:59:55.584Z,1.43
2018-12-27T16:02:25.573Z,1.43
2018-12-27T16:07:44.242Z,1.44
2018-12-27T16:10:15.381Z,1.44
2018-12-27T16:12:45.218Z,1.47
2018-12-27T16:15:15.092Z,1.49
2018-12-27T16:17:44.834Z,1.50
2018-12-27T16:20:14.862Z,1.50
2018-12-27T16:22:45.170Z,1.51
2018-12-27T16:25:19.251Z,1.46
2018-12-27T16:27:49.057Z,1.45
2018-12-27T16:30:18.969Z,1.43
2018-12-27T16:32:49.254Z,1.42
2018-12-27T16:35:19.312Z,1.40
2018-12-27T16:37:49.541Z,1.39
2018-12-27T16:40:19.731Z,1.38
2018-12-27T16:45:38.701Z,1.35
2018-12-27T16:48:08.341Z,1.36
2018-12-27T16:50:37.983Z,1.36
2018-12-27T16:53:26.869Z,1.38
2018-12-27T16:55:56.620Z,1.40
2018-12-27T16:58:26.340Z,1.41
2018-12-27T17:00:56.203Z,1.42
2018-12-27T17:03:29.620Z,1.41
2018-12-27T17:05:59.452Z,1.41
2018-12-27T17:08:29.155Z,1.39
2018-12-27T17:10:58.770Z,1.38
2018-12-27T17:13:28.544Z,1.38
2018-12-27T17:15:58.202Z,1.37
2018-12-27T17:18:46.991Z,1.36
2018-12-27T17:21:16.682Z,1.35
2018-12-27T17:23:47.337Z,1.35
2018-12-27T17:26:17.683Z,1.34
2018-12-27T17:28:47.383Z,1.33
2018-12-27T17:31:17.046Z,1.32
2018-12-27T17:33:46.997Z,1.32
2018-12-27T17:36:16.799Z,1.29
2018-12-27T17:38:47.273Z,1.29
2018-12-27T17:41:17.290Z,1.28
2018-12-27T17:43:50.601Z,1.28
2018-12-27T17:46:20.529Z,1.28
2018-12-27T17:48:50.283Z,1.27
2018-12-27T17:51:20.289Z,1.27
2018-12-27T17:54:10.266Z,1.29
2018-12-27T17:56:40.097Z,1.28
2018-12-27T17:59:09.809Z,1.29
2018-12-27T18:04:50.268Z,1.27
2018-12-27T18:07:19.920Z,1.28
2018-12-27T18:09:52.497Z,1.28
2018-12-27T18:12:22.156Z,1.28
2018-12-27T18:17:50.749Z,1.28
2018-12-27T18:20:20.387Z,1.27
2018-12-27T18:22:50.003Z,1.27
2018-12-27T18:25:20.092Z,1.28
2018-12-27T18:27:49.737Z,1.26
2018-12-27T18:30:19.639Z,1.26
2018-12-27T18:32:49.398Z,1.27
2018-12-27T18:35:19.119Z,1.26
2018-12-27T18:37:48.752Z,1.26
2018-12-27T18:40:18.564Z,1.26
2018-12-27T18:42:48.302Z,1.28
2018-12-27T18:45:18.452Z,1.28
2018-12-27T18:47:48.384Z,1.30
2018-12-27T18:50:18.013Z,1.30
2018-12-27T18:55:36.306Z,1.29
2018-12-27T18:58:05.970Z,1.30
2018-12-27T19:00:35.722Z,1.31
2018-12-27T19:03:05.822Z,1.30
2018-12-27T19:05:54.427Z,1.31
2018-12-27T19:08:24.219Z,1.33
2018-12-27T19:11:31.764Z,1.34
2018-12-27T19:14:01.695Z,1.34
2018-12-27T19:16:31.472Z,1.32
2018-12-27T19:19:01.181Z,1.31
2018-12-27T19:21:56.744Z,1.32
2018-12-27T19:24:26.379Z,1.31
2018-12-27T19:26:56.032Z,1.30
2018-12-27T19:29:25.973Z,1.29
2018-12-27T19:31:55.815Z,1.30
2018-12-27T19:34:25.546Z,1.30
2018-12-27T19:36:55.493Z,1.28
2018-12-27T19:39:25.110Z,1.28
2018-12-27T19:42:13.824Z,1.26
2018-12-27T19:47:34.694Z,1.24
2018-12-27T19:50:08.039Z,1.21
2018-12-27T19:52:38.065Z,1.20
2018-12-27T19:55:10.738Z,1.17
2018-12-27T19:57:41.191Z,1.16
2018-12-27T20:00:10.809Z,1.13
2018-12-27T20:02:59.707Z,1.12
2018-12-27T20:05:31.602Z,1.09
2018-12-27T20:10:56.687Z,1.05
2018-12-27T20:13:26.392Z,1.03
2018-12-27T20:15:56.015Z,1.01
2018-12-27T20:18:25.982Z,0.99
2018-12-27T20:20:55.727Z,0.97
2018-12-27T20:23:25.634Z,0.97
2018-12-27T20:25:55.540Z,0.96
2018-12-27T20:28:25.187Z,0.97
2018-12-27T20:30:54.873Z,0.97
2018-12-27T20:33:24.851Z,0.97
2018-12-27T20:35:54.500Z,0.97
2018-12-27T20:38:24.162Z,0.97
2018-12-27T20:40:54.123Z,0.96
2018-12-27T20:43:23.793Z,0.97
2018-12-27T20:45:53.429Z,0.98
2018-12-27T20:48:23.347Z,0.96
2018-12-27T20:53:45.266Z,0.99
2018-12-27T20:56:15.725Z,0.97
2018-12-27T20:58:46.427Z,0.98
2018-12-27T21:01:17.101Z,0.98
2018-12-27T21:03:47.170Z,1.00
2018-12-27T21:06:17.289Z,1.00
2018-12-27T21:08:46.998Z,1.01
2018-12-27T21:14:05.783Z,1.01
2018-12-27T21:16:35.444Z,1.01
2018-12-27T21:19:05.093Z,1.00
2018-12-27T21:21:35.171Z,1.00
2018-12-27T21:24:04.812Z,0.98
2018-12-27T21:26:34.473Z,1.00
2018-12-27T21:31:39.824Z,1.02
2018-12-27T21:34:09.550Z,1.02
2018-12-27T21:36:39.447Z,1.01
2018-12-27T21:39:09.609Z,1.00
2018-12-27T21:41:39.283Z,1.00
2018-12-27T21:44:08.926Z,0.98
2018-12-27T21:46:39.073Z,0.96
2018-12-27T21:49:08.780Z,0.95
2018-12-27T21:51:38.603Z,0.94
2018-12-27T21:54:08.328Z,0.93
2018-12-27T21:56:38.006Z,0.94
2018-12-27T21:59:07.641Z,0.91
2018-12-27T22:02:17.750Z,0.89
2018-12-27T22:04:47.563Z,0.87
2018-12-27T22:07:17.504Z,0.88
2018-12-27T22:09:47.268Z,0.85
2018-12-27T22:12:16.950Z,0.82
2018-12-27T22:14:46.607Z,0.82
2018-12-27T22:17:16.706Z,0.81
2018-12-27T22:19:46.353Z,0.81
2018-12-27T22:22:16.004Z,0.78
2018-12-27T22:25:04.912Z,0.79
2018-12-27T22:27:34.600Z,0.80
2018-12-27T22:30:04.352Z,0.80
2018-12-27T22:32:34.090Z,0.80
2018-12-27T22:35:03.722Z,0.79
2018-12-27T22:37:33.449Z,0.77
2018-12-27T22:40:03.170Z,0.76
2018-12-27T22:42:32.839Z,0.75
2018-12-27T22:45:02.467Z,0.73
2018-12-27T22:47:32.603Z,0.73
2018-12-27T22:50:02.318Z,0.73
2018-12-27T22:52:32.031Z,0.73
2018-12-27T22:55:04.818Z,0.72
2018-12-27T22:57:34.748Z,0.74
2018-12-27T23:03:00.001Z,0.71
2018-12-27T23:05:30.247Z,0.67
2018-12-27T23:07:59.873Z,0.65
2018-12-27T23:10:29.780Z,0.62
2018-12-27T23:12:59.414Z,0.61
2018-12-27T23:15:29.035Z,0.59
2018-12-27T23:17:58.911Z,0.57
2018-12-27T23:20:28.565Z,0.54
2018-12-27T23:22:58.191Z,0.51
2018-12-27T23:25:28.070Z,0.50
2018-12-27T23:27:57.727Z,0.48
2018-12-27T23:30:27.382Z,0.45
2018-12-27T23:32:57.236Z,0.44
2018-12-27T23:35:26.863Z,0.40
2018-12-27T23:37:56.526Z,0.37
2018-12-27T23:40:26.462Z,0.37
2018-12-27T23:42:56.100Z,0.33
2018-12-27T23:45:25.849Z,0.33
2018-12-27T23:47:55.938Z,0.34
2018-12-27T23:50:25.573Z,0.33
2018-12-27T23:52:55.201Z,0.34
2018-12-27T23:55:25.212Z,0.31
2018-12-27T23:57:54.846Z,0.30
